<?xml version="1.0" encoding="UTF-8" standalone="no" ?>
<gpx xmlns="http://www.topografix.com/GPX/1/1" xmlns:xsi="http://www.w3.org/2001/XMLSchema-instance" xsi:schemaLocation="http://www.topografix.com/GPX/1/1 http://www.topografix.com/GPX/1/1/gpx.xsd" version="1.1" creator="VisuGPX - https://www.visugpx.com">
  <metadata>
    <name>Verqueras J2 option Grand serre</name>
  </metadata>
  <wpt lat="45.00263" lon="5.79581">
    <ele>1051.4</ele>
    <name><![CDATA[001]]></name>
    <desc><![CDATA[24-OCT-09]]></desc>
  </wpt>
  <wpt lat="45.00522" lon="5.82637">
    <ele>2136.3</ele>
    <name><![CDATA[002]]></name>
    <desc><![CDATA[24-OCT-09]]></desc>
  </wpt>
  <wpt lat="44.99095" lon="5.84561">
    <ele>2176.5</ele>
    <name><![CDATA[003]]></name>
    <desc><![CDATA[24-OCT-09]]></desc>
  </wpt>
  <wpt lat="44.98842" lon="5.8496">
    <ele>2023.1</ele>
    <name><![CDATA[004]]></name>
    <desc><![CDATA[24-OCT-09]]></desc>
  </wpt>
  <wpt lat="44.98303" lon="5.83292">
    <ele>1548.6</ele>
    <name><![CDATA[005]]></name>
    <desc><![CDATA[24-OCT-09]]></desc>
  </wpt>
  <trk>
    <name><![CDATA[Grand Serre ]]></name>
    <extensions>
      <line xmlns="http://www.topografix.com/GPX/gpx_style/0/2">
        <color>0000FF</color>
        <width>4</width>
      </line>
    </extensions>
    <trkseg>
      <trkpt lat="45.00268" lon="5.79583">
        <ele>1060.471436</ele>
        <time>2009-10-24T10:03:03Z</time>
      </trkpt>
      <trkpt lat="45.00277" lon="5.79594">
        <ele>1060.471436</ele>
        <time>2009-10-24T10:03:12Z</time>
      </trkpt>
      <trkpt lat="45.00284" lon="5.79621">
        <ele>1060.471436</ele>
        <time>2009-10-24T10:03:27Z</time>
      </trkpt>
      <trkpt lat="45.00293" lon="5.79629">
        <ele>1062.394043</ele>
        <time>2009-10-24T10:03:34Z</time>
      </trkpt>
      <trkpt lat="45.00315" lon="5.79635">
        <ele>1062.394043</ele>
        <time>2009-10-24T10:03:50Z</time>
      </trkpt>
      <trkpt lat="45.00372" lon="5.79637">
        <ele>1061.432861</ele>
        <time>2009-10-24T10:04:29Z</time>
      </trkpt>
      <trkpt lat="45.00406" lon="5.79648">
        <ele>1066.239258</ele>
        <time>2009-10-24T10:04:53Z</time>
      </trkpt>
      <trkpt lat="45.00408" lon="5.79653">
        <ele>1068.642822</ele>
        <time>2009-10-24T10:04:57Z</time>
      </trkpt>
      <trkpt lat="45.00428" lon="5.79653">
        <ele>1064.797363</ele>
        <time>2009-10-24T10:05:09Z</time>
      </trkpt>
      <trkpt lat="45.00483" lon="5.79665">
        <ele>1066.719971</ele>
        <time>2009-10-24T10:05:48Z</time>
      </trkpt>
      <trkpt lat="45.00519" lon="5.79683">
        <ele>1065.278076</ele>
        <time>2009-10-24T10:06:16Z</time>
      </trkpt>
      <trkpt lat="45.00519" lon="5.7977">
        <ele>1067.200684</ele>
        <time>2009-10-24T10:07:01Z</time>
      </trkpt>
      <trkpt lat="45.00513" lon="5.79795">
        <ele>1066.719971</ele>
        <time>2009-10-24T10:07:15Z</time>
      </trkpt>
      <trkpt lat="45.00517" lon="5.79802">
        <ele>1067.681152</ele>
        <time>2009-10-24T10:07:21Z</time>
      </trkpt>
      <trkpt lat="45.00533" lon="5.79814">
        <ele>1070.56543</ele>
        <time>2009-10-24T10:07:34Z</time>
      </trkpt>
      <trkpt lat="45.00536" lon="5.7983">
        <ele>1070.084717</ele>
        <time>2009-10-24T10:07:43Z</time>
      </trkpt>
      <trkpt lat="45.00511" lon="5.80019">
        <ele>1078.255859</ele>
        <time>2009-10-24T10:10:06Z</time>
      </trkpt>
      <trkpt lat="45.00506" lon="5.80034">
        <ele>1081.139893</ele>
        <time>2009-10-24T10:10:14Z</time>
      </trkpt>
      <trkpt lat="45.00483" lon="5.8005">
        <ele>1090.272461</ele>
        <time>2009-10-24T10:10:32Z</time>
      </trkpt>
      <trkpt lat="45.00444" lon="5.80092">
        <ele>1090.272461</ele>
        <time>2009-10-24T10:11:12Z</time>
      </trkpt>
      <trkpt lat="45.00413" lon="5.80114">
        <ele>1097.001465</ele>
        <time>2009-10-24T10:11:36Z</time>
      </trkpt>
      <trkpt lat="45.00316" lon="5.8015">
        <ele>1099.885498</ele>
        <time>2009-10-24T10:12:48Z</time>
      </trkpt>
      <trkpt lat="45.00283" lon="5.80173">
        <ele>1100.846924</ele>
        <time>2009-10-24T10:13:16Z</time>
      </trkpt>
      <trkpt lat="45.00272" lon="5.80187">
        <ele>1094.598145</ele>
        <time>2009-10-24T10:13:29Z</time>
      </trkpt>
      <trkpt lat="45.00206" lon="5.80224">
        <ele>1117.669922</ele>
        <time>2009-10-24T10:14:20Z</time>
      </trkpt>
      <trkpt lat="45.00161" lon="5.80261">
        <ele>1118.631348</ele>
        <time>2009-10-24T10:14:58Z</time>
      </trkpt>
      <trkpt lat="45.00151" lon="5.80318">
        <ele>1127.283203</ele>
        <time>2009-10-24T10:15:38Z</time>
      </trkpt>
      <trkpt lat="45.00187" lon="5.80336">
        <ele>1140.260986</ele>
        <time>2009-10-24T10:16:10Z</time>
      </trkpt>
      <trkpt lat="45.00223" lon="5.80343">
        <ele>1151.796875</ele>
        <time>2009-10-24T10:16:37Z</time>
      </trkpt>
      <trkpt lat="45.0027" lon="5.80371">
        <ele>1146.028809</ele>
        <time>2009-10-24T10:17:18Z</time>
      </trkpt>
      <trkpt lat="45.00292" lon="5.80402">
        <ele>1147.951416</ele>
        <time>2009-10-24T10:17:55Z</time>
      </trkpt>
      <trkpt lat="45.00345" lon="5.80415">
        <ele>1154.680664</ele>
        <time>2009-10-24T10:19:55Z</time>
      </trkpt>
      <trkpt lat="45.00355" lon="5.80405">
        <ele>1149.874268</ele>
        <time>2009-10-24T10:20:06Z</time>
      </trkpt>
      <trkpt lat="45.00399" lon="5.80407">
        <ele>1145.067383</ele>
        <time>2009-10-24T10:20:41Z</time>
      </trkpt>
      <trkpt lat="45.00428" lon="5.80401">
        <ele>1146.98999</ele>
        <time>2009-10-24T10:20:56Z</time>
      </trkpt>
      <trkpt lat="45.00477" lon="5.80402">
        <ele>1148.432129</ele>
        <time>2009-10-24T10:21:31Z</time>
      </trkpt>
      <trkpt lat="45.00506" lon="5.8041">
        <ele>1153.719482</ele>
        <time>2009-10-24T10:21:53Z</time>
      </trkpt>
      <trkpt lat="45.00585" lon="5.80458">
        <ele>1168.619873</ele>
        <time>2009-10-24T10:23:10Z</time>
      </trkpt>
      <trkpt lat="45.00612" lon="5.80465">
        <ele>1172.945801</ele>
        <time>2009-10-24T10:23:36Z</time>
      </trkpt>
      <trkpt lat="45.00662" lon="5.80453">
        <ele>1175.348877</ele>
        <time>2009-10-24T10:24:16Z</time>
      </trkpt>
      <trkpt lat="45.00677" lon="5.80492">
        <ele>1182.559082</ele>
        <time>2009-10-24T10:24:59Z</time>
      </trkpt>
      <trkpt lat="45.00698" lon="5.80492">
        <ele>1186.404297</ele>
        <time>2009-10-24T10:25:27Z</time>
      </trkpt>
      <trkpt lat="45.00716" lon="5.8051">
        <ele>1188.807617</ele>
        <time>2009-10-24T10:25:49Z</time>
      </trkpt>
      <trkpt lat="45.00717" lon="5.80519">
        <ele>1190.249512</ele>
        <time>2009-10-24T10:25:59Z</time>
      </trkpt>
      <trkpt lat="45.00751" lon="5.80556">
        <ele>1199.38208</ele>
        <time>2009-10-24T10:26:46Z</time>
      </trkpt>
      <trkpt lat="45.00767" lon="5.80567">
        <ele>1201.7854</ele>
        <time>2009-10-24T10:27:01Z</time>
      </trkpt>
      <trkpt lat="45.00782" lon="5.80588">
        <ele>1205.149902</ele>
        <time>2009-10-24T10:27:24Z</time>
      </trkpt>
      <trkpt lat="45.0081" lon="5.80617">
        <ele>1211.87915</ele>
        <time>2009-10-24T10:28:01Z</time>
      </trkpt>
      <trkpt lat="45.0082" lon="5.80621">
        <ele>1212.840576</ele>
        <time>2009-10-24T10:28:22Z</time>
      </trkpt>
      <trkpt lat="45.00818" lon="5.80617">
        <ele>1213.801758</ele>
        <time>2009-10-24T10:29:53Z</time>
      </trkpt>
      <trkpt lat="45.00821" lon="5.8062">
        <ele>1208.514404</ele>
        <time>2009-10-24T10:30:13Z</time>
      </trkpt>
      <trkpt lat="45.00818" lon="5.8062">
        <ele>1212.359863</ele>
        <time>2009-10-24T10:30:31Z</time>
      </trkpt>
      <trkpt lat="45.00825" lon="5.80626">
        <ele>1215.724609</ele>
        <time>2009-10-24T10:30:53Z</time>
      </trkpt>
      <trkpt lat="45.00862" lon="5.80634">
        <ele>1215.724609</ele>
        <time>2009-10-24T10:31:26Z</time>
      </trkpt>
      <trkpt lat="45.00868" lon="5.80639">
        <ele>1216.685791</ele>
        <time>2009-10-24T10:31:32Z</time>
      </trkpt>
      <trkpt lat="45.0087" lon="5.80648">
        <ele>1218.608398</ele>
        <time>2009-10-24T10:31:43Z</time>
      </trkpt>
      <trkpt lat="45.00862" lon="5.80645">
        <ele>1220.050293</ele>
        <time>2009-10-24T10:31:51Z</time>
      </trkpt>
      <trkpt lat="45.00863" lon="5.80653">
        <ele>1221.9729</ele>
        <time>2009-10-24T10:32:01Z</time>
      </trkpt>
      <trkpt lat="45.0087" lon="5.80662">
        <ele>1222.934326</ele>
        <time>2009-10-24T10:32:09Z</time>
      </trkpt>
      <trkpt lat="45.00869" lon="5.80674">
        <ele>1225.818115</ele>
        <time>2009-10-24T10:32:21Z</time>
      </trkpt>
      <trkpt lat="45.00877" lon="5.80672">
        <ele>1226.298828</ele>
        <time>2009-10-24T10:32:33Z</time>
      </trkpt>
      <trkpt lat="45.00876" lon="5.80685">
        <ele>1234.950928</ele>
        <time>2009-10-24T10:32:53Z</time>
      </trkpt>
      <trkpt lat="45.00904" lon="5.80704">
        <ele>1240.238037</ele>
        <time>2009-10-24T10:33:47Z</time>
      </trkpt>
      <trkpt lat="45.00913" lon="5.80702">
        <ele>1240.238037</ele>
        <time>2009-10-24T10:34:05Z</time>
      </trkpt>
      <trkpt lat="45.00948" lon="5.80712">
        <ele>1241.199219</ele>
        <time>2009-10-24T10:34:35Z</time>
      </trkpt>
      <trkpt lat="45.0099" lon="5.80746">
        <ele>1247.447998</ele>
        <time>2009-10-24T10:35:29Z</time>
      </trkpt>
      <trkpt lat="45.00994" lon="5.80741">
        <ele>1252.254395</ele>
        <time>2009-10-24T10:35:36Z</time>
      </trkpt>
      <trkpt lat="45.00999" lon="5.80743">
        <ele>1253.696533</ele>
        <time>2009-10-24T10:35:42Z</time>
      </trkpt>
      <trkpt lat="45.01001" lon="5.80755">
        <ele>1257.061035</ele>
        <time>2009-10-24T10:36:02Z</time>
      </trkpt>
      <trkpt lat="45.00999" lon="5.80812">
        <ele>1283.016602</ele>
        <time>2009-10-24T10:37:49Z</time>
      </trkpt>
      <trkpt lat="45.01005" lon="5.80823">
        <ele>1287.823242</ele>
        <time>2009-10-24T10:38:09Z</time>
      </trkpt>
      <trkpt lat="45.01007" lon="5.80846">
        <ele>1297.917236</ele>
        <time>2009-10-24T10:38:49Z</time>
      </trkpt>
      <trkpt lat="45.01012" lon="5.80853">
        <ele>1295.994629</ele>
        <time>2009-10-24T10:38:58Z</time>
      </trkpt>
      <trkpt lat="45.01025" lon="5.80861">
        <ele>1301.281738</ele>
        <time>2009-10-24T10:39:18Z</time>
      </trkpt>
      <trkpt lat="45.01038" lon="5.80879">
        <ele>1308.491699</ele>
        <time>2009-10-24T10:39:52Z</time>
      </trkpt>
      <trkpt lat="45.01066" lon="5.80899">
        <ele>1314.259521</ele>
        <time>2009-10-24T10:40:37Z</time>
      </trkpt>
      <trkpt lat="45.01094" lon="5.80906">
        <ele>1314.259521</ele>
        <time>2009-10-24T10:41:11Z</time>
      </trkpt>
      <trkpt lat="45.01094" lon="5.809">
        <ele>1320.508057</ele>
        <time>2009-10-24T10:41:38Z</time>
      </trkpt>
      <trkpt lat="45.01098" lon="5.80909">
        <ele>1318.104736</ele>
        <time>2009-10-24T10:41:57Z</time>
      </trkpt>
      <trkpt lat="45.01141" lon="5.80949">
        <ele>1338.29248</ele>
        <time>2009-10-24T10:43:23Z</time>
      </trkpt>
      <trkpt lat="45.01143" lon="5.80959">
        <ele>1336.850342</ele>
        <time>2009-10-24T10:44:08Z</time>
      </trkpt>
      <trkpt lat="45.01142" lon="5.8095">
        <ele>1345.021729</ele>
        <time>2009-10-24T10:44:27Z</time>
      </trkpt>
      <trkpt lat="45.01152" lon="5.80968">
        <ele>1333.005127</ele>
        <time>2009-10-24T10:44:51Z</time>
      </trkpt>
      <trkpt lat="45.01162" lon="5.80965">
        <ele>1340.215332</ele>
        <time>2009-10-24T10:45:05Z</time>
      </trkpt>
      <trkpt lat="45.01173" lon="5.8098">
        <ele>1336.369873</ele>
        <time>2009-10-24T10:45:24Z</time>
      </trkpt>
      <trkpt lat="45.012" lon="5.80986">
        <ele>1351.270264</ele>
        <time>2009-10-24T10:45:54Z</time>
      </trkpt>
      <trkpt lat="45.01236" lon="5.81011">
        <ele>1360.883545</ele>
        <time>2009-10-24T10:46:43Z</time>
      </trkpt>
      <trkpt lat="45.01239" lon="5.81005">
        <ele>1368.093262</ele>
        <time>2009-10-24T10:46:48Z</time>
      </trkpt>
      <trkpt lat="45.01246" lon="5.81012">
        <ele>1376.264648</ele>
        <time>2009-10-24T10:47:01Z</time>
      </trkpt>
      <trkpt lat="45.01258" lon="5.81007">
        <ele>1392.126465</ele>
        <time>2009-10-24T10:47:16Z</time>
      </trkpt>
      <trkpt lat="45.01263" lon="5.81014">
        <ele>1390.203857</ele>
        <time>2009-10-24T10:47:22Z</time>
      </trkpt>
      <trkpt lat="45.01268" lon="5.81033">
        <ele>1379.148438</ele>
        <time>2009-10-24T10:47:34Z</time>
      </trkpt>
      <trkpt lat="45.01287" lon="5.81064">
        <ele>1367.612549</ele>
        <time>2009-10-24T10:48:07Z</time>
      </trkpt>
      <trkpt lat="45.01295" lon="5.81068">
        <ele>1373.861328</ele>
        <time>2009-10-24T10:48:22Z</time>
      </trkpt>
      <trkpt lat="45.01298" lon="5.81079">
        <ele>1379.62915</ele>
        <time>2009-10-24T10:48:40Z</time>
      </trkpt>
      <trkpt lat="45.01302" lon="5.81079">
        <ele>1382.513184</ele>
        <time>2009-10-24T10:48:46Z</time>
      </trkpt>
      <trkpt lat="45.01307" lon="5.81091">
        <ele>1381.551758</ele>
        <time>2009-10-24T10:49:00Z</time>
      </trkpt>
      <trkpt lat="45.01311" lon="5.81086">
        <ele>1400.778076</ele>
        <time>2009-10-24T10:49:13Z</time>
      </trkpt>
      <trkpt lat="45.01316" lon="5.81088">
        <ele>1405.584961</ele>
        <time>2009-10-24T10:49:26Z</time>
      </trkpt>
      <trkpt lat="45.01315" lon="5.81111">
        <ele>1388.761963</ele>
        <time>2009-10-24T10:49:43Z</time>
      </trkpt>
      <trkpt lat="45.01346" lon="5.81131">
        <ele>1411.833496</ele>
        <time>2009-10-24T10:50:37Z</time>
      </trkpt>
      <trkpt lat="45.01344" lon="5.81138">
        <ele>1415.197998</ele>
        <time>2009-10-24T10:50:44Z</time>
      </trkpt>
      <trkpt lat="45.01326" lon="5.81136">
        <ele>1420.004639</ele>
        <time>2009-10-24T10:51:12Z</time>
      </trkpt>
      <trkpt lat="45.01333" lon="5.81141">
        <ele>1425.291748</ele>
        <time>2009-10-24T10:51:26Z</time>
      </trkpt>
      <trkpt lat="45.01327" lon="5.81153">
        <ele>1419.043213</ele>
        <time>2009-10-24T10:51:36Z</time>
      </trkpt>
      <trkpt lat="45.01332" lon="5.81155">
        <ele>1413.755859</ele>
        <time>2009-10-24T10:51:41Z</time>
      </trkpt>
      <trkpt lat="45.01335" lon="5.81165">
        <ele>1413.275391</ele>
        <time>2009-10-24T10:51:53Z</time>
      </trkpt>
      <trkpt lat="45.01343" lon="5.81167">
        <ele>1430.098389</ele>
        <time>2009-10-24T10:52:22Z</time>
      </trkpt>
      <trkpt lat="45.01336" lon="5.81168">
        <ele>1433.462891</ele>
        <time>2009-10-24T10:52:32Z</time>
      </trkpt>
      <trkpt lat="45.01323" lon="5.81181">
        <ele>1431.059814</ele>
        <time>2009-10-24T10:52:58Z</time>
      </trkpt>
      <trkpt lat="45.01319" lon="5.81178">
        <ele>1441.153564</ele>
        <time>2009-10-24T10:53:11Z</time>
      </trkpt>
      <trkpt lat="45.01324" lon="5.81192">
        <ele>1445.960205</ele>
        <time>2009-10-24T10:53:25Z</time>
      </trkpt>
      <trkpt lat="45.01342" lon="5.81201">
        <ele>1447.882812</ele>
        <time>2009-10-24T10:53:59Z</time>
      </trkpt>
      <trkpt lat="45.01347" lon="5.81212">
        <ele>1444.998779</ele>
        <time>2009-10-24T10:54:09Z</time>
      </trkpt>
      <trkpt lat="45.01343" lon="5.81217">
        <ele>1442.11499</ele>
        <time>2009-10-24T10:54:16Z</time>
      </trkpt>
      <trkpt lat="45.01333" lon="5.81209">
        <ele>1450.286133</ele>
        <time>2009-10-24T10:54:33Z</time>
      </trkpt>
      <trkpt lat="45.0132" lon="5.81218">
        <ele>1451.728027</ele>
        <time>2009-10-24T10:54:54Z</time>
      </trkpt>
      <trkpt lat="45.01325" lon="5.8123">
        <ele>1455.573486</ele>
        <time>2009-10-24T10:55:08Z</time>
      </trkpt>
      <trkpt lat="45.01322" lon="5.81229">
        <ele>1457.015381</ele>
        <time>2009-10-24T10:55:14Z</time>
      </trkpt>
      <trkpt lat="45.01324" lon="5.81238">
        <ele>1448.363281</ele>
        <time>2009-10-24T10:55:27Z</time>
      </trkpt>
      <trkpt lat="45.01334" lon="5.81249">
        <ele>1452.20874</ele>
        <time>2009-10-24T10:55:50Z</time>
      </trkpt>
      <trkpt lat="45.01333" lon="5.81255">
        <ele>1459.418701</ele>
        <time>2009-10-24T10:56:00Z</time>
      </trkpt>
      <trkpt lat="45.01341" lon="5.81255">
        <ele>1465.186523</ele>
        <time>2009-10-24T10:56:14Z</time>
      </trkpt>
      <trkpt lat="45.01342" lon="5.81282">
        <ele>1466.628418</ele>
        <time>2009-10-24T10:56:57Z</time>
      </trkpt>
      <trkpt lat="45.01349" lon="5.81283">
        <ele>1469.031982</ele>
        <time>2009-10-24T10:57:05Z</time>
      </trkpt>
      <trkpt lat="45.01347" lon="5.81287">
        <ele>1466.628418</ele>
        <time>2009-10-24T10:57:09Z</time>
      </trkpt>
      <trkpt lat="45.01348" lon="5.81284">
        <ele>1475.280273</ele>
        <time>2009-10-24T10:57:16Z</time>
      </trkpt>
      <trkpt lat="45.01346" lon="5.81301">
        <ele>1466.628418</ele>
        <time>2009-10-24T10:57:40Z</time>
      </trkpt>
      <trkpt lat="45.01349" lon="5.81297">
        <ele>1482.970703</ele>
        <time>2009-10-24T10:57:58Z</time>
      </trkpt>
      <trkpt lat="45.01358" lon="5.81306">
        <ele>1475.280273</ele>
        <time>2009-10-24T10:58:14Z</time>
      </trkpt>
      <trkpt lat="45.01361" lon="5.81304">
        <ele>1477.683594</ele>
        <time>2009-10-24T10:58:18Z</time>
      </trkpt>
      <trkpt lat="45.0137" lon="5.81318">
        <ele>1475.280273</ele>
        <time>2009-10-24T10:58:38Z</time>
      </trkpt>
      <trkpt lat="45.01375" lon="5.81314">
        <ele>1485.85498</ele>
        <time>2009-10-24T10:58:45Z</time>
      </trkpt>
      <trkpt lat="45.01379" lon="5.81323">
        <ele>1483.451416</ele>
        <time>2009-10-24T10:58:56Z</time>
      </trkpt>
      <trkpt lat="45.01371" lon="5.81335">
        <ele>1495.94873</ele>
        <time>2009-10-24T10:59:32Z</time>
      </trkpt>
      <trkpt lat="45.01379" lon="5.81338">
        <ele>1489.700195</ele>
        <time>2009-10-24T10:59:41Z</time>
      </trkpt>
      <trkpt lat="45.01396" lon="5.81358">
        <ele>1494.506592</ele>
        <time>2009-10-24T11:00:16Z</time>
      </trkpt>
      <trkpt lat="45.01406" lon="5.8136">
        <ele>1494.026123</ele>
        <time>2009-10-24T11:00:26Z</time>
      </trkpt>
      <trkpt lat="45.01436" lon="5.81381">
        <ele>1495.468018</ele>
        <time>2009-10-24T11:01:04Z</time>
      </trkpt>
      <trkpt lat="45.01436" lon="5.81385">
        <ele>1494.987305</ele>
        <time>2009-10-24T11:01:07Z</time>
      </trkpt>
      <trkpt lat="45.01474" lon="5.81413">
        <ele>1506.523193</ele>
        <time>2009-10-24T11:02:08Z</time>
      </trkpt>
      <trkpt lat="45.01475" lon="5.81418">
        <ele>1506.523193</ele>
        <time>2009-10-24T11:02:26Z</time>
      </trkpt>
      <trkpt lat="45.01495" lon="5.81428">
        <ele>1509.407227</ele>
        <time>2009-10-24T11:02:51Z</time>
      </trkpt>
      <trkpt lat="45.01524" lon="5.81454">
        <ele>1515.655762</ele>
        <time>2009-10-24T11:03:42Z</time>
      </trkpt>
      <trkpt lat="45.01563" lon="5.8146">
        <ele>1519.981689</ele>
        <time>2009-10-24T11:04:11Z</time>
      </trkpt>
      <trkpt lat="45.01586" lon="5.81484">
        <ele>1514.213623</ele>
        <time>2009-10-24T11:04:51Z</time>
      </trkpt>
      <trkpt lat="45.01591" lon="5.81495">
        <ele>1512.771729</ele>
        <time>2009-10-24T11:05:03Z</time>
      </trkpt>
      <trkpt lat="45.01596" lon="5.81497">
        <ele>1514.213623</ele>
        <time>2009-10-24T11:05:23Z</time>
      </trkpt>
      <trkpt lat="45.01602" lon="5.81508">
        <ele>1513.73291</ele>
        <time>2009-10-24T11:05:38Z</time>
      </trkpt>
      <trkpt lat="45.01618" lon="5.81522">
        <ele>1508.445801</ele>
        <time>2009-10-24T11:06:07Z</time>
      </trkpt>
      <trkpt lat="45.01619" lon="5.81542">
        <ele>1517.0979</ele>
        <time>2009-10-24T11:06:36Z</time>
      </trkpt>
      <trkpt lat="45.01611" lon="5.81543">
        <ele>1524.307617</ele>
        <time>2009-10-24T11:07:02Z</time>
      </trkpt>
      <trkpt lat="45.01611" lon="5.8155">
        <ele>1527.19165</ele>
        <time>2009-10-24T11:07:14Z</time>
      </trkpt>
      <trkpt lat="45.01603" lon="5.81547">
        <ele>1531.998047</ele>
        <time>2009-10-24T11:07:44Z</time>
      </trkpt>
      <trkpt lat="45.0161" lon="5.81565">
        <ele>1531.036865</ele>
        <time>2009-10-24T11:08:15Z</time>
      </trkpt>
      <trkpt lat="45.01591" lon="5.81539">
        <ele>1532.479004</ele>
        <time>2009-10-24T11:08:48Z</time>
      </trkpt>
      <trkpt lat="45.01593" lon="5.81542">
        <ele>1537.766113</ele>
        <time>2009-10-24T11:09:34Z</time>
      </trkpt>
      <trkpt lat="45.01589" lon="5.81543">
        <ele>1537.766113</ele>
        <time>2009-10-24T11:10:02Z</time>
      </trkpt>
      <trkpt lat="45.01594" lon="5.81542">
        <ele>1541.611328</ele>
        <time>2009-10-24T11:10:48Z</time>
      </trkpt>
      <trkpt lat="45.01592" lon="5.81543">
        <ele>1540.169434</ele>
        <time>2009-10-24T11:10:57Z</time>
      </trkpt>
      <trkpt lat="45.01609" lon="5.8156">
        <ele>1536.324219</ele>
        <time>2009-10-24T11:11:21Z</time>
      </trkpt>
      <trkpt lat="45.01638" lon="5.81603">
        <ele>1534.882324</ele>
        <time>2009-10-24T11:11:53Z</time>
      </trkpt>
      <trkpt lat="45.01663" lon="5.81619">
        <ele>1531.998047</ele>
        <time>2009-10-24T11:12:18Z</time>
      </trkpt>
      <trkpt lat="45.0167" lon="5.81619">
        <ele>1531.998047</ele>
        <time>2009-10-24T11:12:24Z</time>
      </trkpt>
      <trkpt lat="45.01673" lon="5.8163">
        <ele>1539.208008</ele>
        <time>2009-10-24T11:12:44Z</time>
      </trkpt>
      <trkpt lat="45.01668" lon="5.81637">
        <ele>1545.937256</ele>
        <time>2009-10-24T11:13:00Z</time>
      </trkpt>
      <trkpt lat="45.01668" lon="5.81653">
        <ele>1551.705322</ele>
        <time>2009-10-24T11:13:33Z</time>
      </trkpt>
      <trkpt lat="45.0171" lon="5.81673">
        <ele>1558.434326</ele>
        <time>2009-10-24T11:14:31Z</time>
      </trkpt>
      <trkpt lat="45.01751" lon="5.81679">
        <ele>1569.009033</ele>
        <time>2009-10-24T11:15:25Z</time>
      </trkpt>
      <trkpt lat="45.01779" lon="5.8167">
        <ele>1569.970215</ele>
        <time>2009-10-24T11:15:46Z</time>
      </trkpt>
      <trkpt lat="45.0182" lon="5.81671">
        <ele>1569.970215</ele>
        <time>2009-10-24T11:16:19Z</time>
      </trkpt>
      <trkpt lat="45.01827" lon="5.8168">
        <ele>1578.62207</ele>
        <time>2009-10-24T11:16:37Z</time>
      </trkpt>
      <trkpt lat="45.01844" lon="5.81687">
        <ele>1584.390137</ele>
        <time>2009-10-24T11:17:13Z</time>
      </trkpt>
      <trkpt lat="45.01843" lon="5.81698">
        <ele>1585.832031</ele>
        <time>2009-10-24T11:17:29Z</time>
      </trkpt>
      <trkpt lat="45.01834" lon="5.81703">
        <ele>1596.406738</ele>
        <time>2009-10-24T11:18:01Z</time>
      </trkpt>
      <trkpt lat="45.0184" lon="5.81712">
        <ele>1597.36792</ele>
        <time>2009-10-24T11:18:23Z</time>
      </trkpt>
      <trkpt lat="45.0183" lon="5.81732">
        <ele>1613.229736</ele>
        <time>2009-10-24T11:19:36Z</time>
      </trkpt>
      <trkpt lat="45.01851" lon="5.81758">
        <ele>1624.284668</ele>
        <time>2009-10-24T11:20:50Z</time>
      </trkpt>
      <trkpt lat="45.01844" lon="5.81763">
        <ele>1631.975342</ele>
        <time>2009-10-24T11:21:15Z</time>
      </trkpt>
      <trkpt lat="45.01858" lon="5.81787">
        <ele>1639.665771</ele>
        <time>2009-10-24T11:22:09Z</time>
      </trkpt>
      <trkpt lat="45.01851" lon="5.81801">
        <ele>1649.759766</ele>
        <time>2009-10-24T11:22:44Z</time>
      </trkpt>
      <trkpt lat="45.01854" lon="5.81804">
        <ele>1650.720947</ele>
        <time>2009-10-24T11:22:52Z</time>
      </trkpt>
      <trkpt lat="45.01848" lon="5.81834">
        <ele>1663.218262</ele>
        <time>2009-10-24T11:23:46Z</time>
      </trkpt>
      <trkpt lat="45.01879" lon="5.81839">
        <ele>1669.466797</ele>
        <time>2009-10-24T11:24:51Z</time>
      </trkpt>
      <trkpt lat="45.01875" lon="5.81836">
        <ele>1665.621582</ele>
        <time>2009-10-24T11:25:10Z</time>
      </trkpt>
      <trkpt lat="45.01879" lon="5.81837">
        <ele>1668.024658</ele>
        <time>2009-10-24T11:26:14Z</time>
      </trkpt>
      <trkpt lat="45.01876" lon="5.81835">
        <ele>1670.427979</ele>
        <time>2009-10-24T11:31:56Z</time>
      </trkpt>
      <trkpt lat="45.01878" lon="5.81834">
        <ele>1667.543945</ele>
        <time>2009-10-24T11:32:39Z</time>
      </trkpt>
      <trkpt lat="45.01841" lon="5.81859">
        <ele>1663.69873</ele>
        <time>2009-10-24T11:35:55Z</time>
      </trkpt>
      <trkpt lat="45.01794" lon="5.81884">
        <ele>1675.234375</ele>
        <time>2009-10-24T11:36:58Z</time>
      </trkpt>
      <trkpt lat="45.01763" lon="5.81914">
        <ele>1687.731689</ele>
        <time>2009-10-24T11:38:08Z</time>
      </trkpt>
      <trkpt lat="45.01729" lon="5.81936">
        <ele>1697.344971</ele>
        <time>2009-10-24T11:39:16Z</time>
      </trkpt>
      <trkpt lat="45.01715" lon="5.81937">
        <ele>1701.670898</ele>
        <time>2009-10-24T11:40:01Z</time>
      </trkpt>
      <trkpt lat="45.0169" lon="5.81961">
        <ele>1710.803467</ele>
        <time>2009-10-24T11:40:57Z</time>
      </trkpt>
      <trkpt lat="45.01652" lon="5.81979">
        <ele>1726.665283</ele>
        <time>2009-10-24T11:42:09Z</time>
      </trkpt>
      <trkpt lat="45.01601" lon="5.82011">
        <ele>1747.814209</ele>
        <time>2009-10-24T11:44:23Z</time>
      </trkpt>
      <trkpt lat="45.01577" lon="5.82014">
        <ele>1755.985107</ele>
        <time>2009-10-24T11:46:08Z</time>
      </trkpt>
      <trkpt lat="45.01568" lon="5.82032">
        <ele>1762.233887</ele>
        <time>2009-10-24T11:46:48Z</time>
      </trkpt>
      <trkpt lat="45.01555" lon="5.82046">
        <ele>1768.482422</ele>
        <time>2009-10-24T11:47:24Z</time>
      </trkpt>
      <trkpt lat="45.01545" lon="5.8205">
        <ele>1771.846924</ele>
        <time>2009-10-24T11:47:46Z</time>
      </trkpt>
      <trkpt lat="45.01541" lon="5.82065">
        <ele>1777.61499</ele>
        <time>2009-10-24T11:48:12Z</time>
      </trkpt>
      <trkpt lat="45.01536" lon="5.8207">
        <ele>1780.979736</ele>
        <time>2009-10-24T11:48:29Z</time>
      </trkpt>
      <trkpt lat="45.01527" lon="5.82069">
        <ele>1784.824951</ele>
        <time>2009-10-24T11:48:47Z</time>
      </trkpt>
      <trkpt lat="45.01517" lon="5.8208">
        <ele>1789.631592</ele>
        <time>2009-10-24T11:49:22Z</time>
      </trkpt>
      <trkpt lat="45.01519" lon="5.82086">
        <ele>1792.996094</ele>
        <time>2009-10-24T11:49:47Z</time>
      </trkpt>
      <trkpt lat="45.01515" lon="5.82094">
        <ele>1795.399414</ele>
        <time>2009-10-24T11:50:04Z</time>
      </trkpt>
      <trkpt lat="45.01505" lon="5.82099">
        <ele>1802.128418</ele>
        <time>2009-10-24T11:50:32Z</time>
      </trkpt>
      <trkpt lat="45.01496" lon="5.82112">
        <ele>1810.780518</ele>
        <time>2009-10-24T11:51:15Z</time>
      </trkpt>
      <trkpt lat="45.01499" lon="5.82121">
        <ele>1813.183838</ele>
        <time>2009-10-24T11:51:31Z</time>
      </trkpt>
      <trkpt lat="45.01492" lon="5.82126">
        <ele>1817.990234</ele>
        <time>2009-10-24T11:51:52Z</time>
      </trkpt>
      <trkpt lat="45.0149" lon="5.82138">
        <ele>1820.874512</ele>
        <time>2009-10-24T11:52:16Z</time>
      </trkpt>
      <trkpt lat="45.01471" lon="5.82146">
        <ele>1834.813477</ele>
        <time>2009-10-24T11:53:10Z</time>
      </trkpt>
      <trkpt lat="45.0146" lon="5.82159">
        <ele>1842.50415</ele>
        <time>2009-10-24T11:53:52Z</time>
      </trkpt>
      <trkpt lat="45.01457" lon="5.82172">
        <ele>1847.79126</ele>
        <time>2009-10-24T11:54:18Z</time>
      </trkpt>
      <trkpt lat="45.01452" lon="5.82171">
        <ele>1852.5979</ele>
        <time>2009-10-24T11:54:41Z</time>
      </trkpt>
      <trkpt lat="45.01443" lon="5.82199">
        <ele>1865.094971</ele>
        <time>2009-10-24T11:55:43Z</time>
      </trkpt>
      <trkpt lat="45.01437" lon="5.82205">
        <ele>1870.863037</ele>
        <time>2009-10-24T11:56:12Z</time>
      </trkpt>
      <trkpt lat="45.01438" lon="5.82213">
        <ele>1874.227539</ele>
        <time>2009-10-24T11:56:28Z</time>
      </trkpt>
      <trkpt lat="45.01422" lon="5.82221">
        <ele>1885.763428</ele>
        <time>2009-10-24T11:57:12Z</time>
      </trkpt>
      <trkpt lat="45.01421" lon="5.82237">
        <ele>1889.608643</ele>
        <time>2009-10-24T11:57:50Z</time>
      </trkpt>
      <trkpt lat="45.01336" lon="5.82261">
        <ele>1927.580566</ele>
        <time>2009-10-24T12:00:42Z</time>
      </trkpt>
      <trkpt lat="45.01338" lon="5.82277">
        <ele>1932.387451</ele>
        <time>2009-10-24T12:01:10Z</time>
      </trkpt>
      <trkpt lat="45.01327" lon="5.82288">
        <ele>1939.116455</ele>
        <time>2009-10-24T12:01:44Z</time>
      </trkpt>
      <trkpt lat="45.01334" lon="5.82294">
        <ele>1942.481201</ele>
        <time>2009-10-24T12:02:01Z</time>
      </trkpt>
      <trkpt lat="45.01333" lon="5.82298">
        <ele>1943.442383</ele>
        <time>2009-10-24T12:02:07Z</time>
      </trkpt>
      <trkpt lat="45.01252" lon="5.82294">
        <ele>1959.304199</ele>
        <time>2009-10-24T12:03:34Z</time>
      </trkpt>
      <trkpt lat="45.01204" lon="5.82301">
        <ele>1975.646484</ele>
        <time>2009-10-24T12:04:49Z</time>
      </trkpt>
      <trkpt lat="45.01181" lon="5.82299">
        <ele>1981.895264</ele>
        <time>2009-10-24T12:05:19Z</time>
      </trkpt>
      <trkpt lat="45.01139" lon="5.82323">
        <ele>1993.911621</ele>
        <time>2009-10-24T12:06:25Z</time>
      </trkpt>
      <trkpt lat="45.01115" lon="5.82324">
        <ele>1999.679688</ele>
        <time>2009-10-24T12:06:54Z</time>
      </trkpt>
      <trkpt lat="45.01113" lon="5.82315">
        <ele>2003.044189</ele>
        <time>2009-10-24T12:07:04Z</time>
      </trkpt>
      <trkpt lat="45.01094" lon="5.82307">
        <ele>2007.370117</ele>
        <time>2009-10-24T12:07:34Z</time>
      </trkpt>
      <trkpt lat="45.01083" lon="5.82307">
        <ele>2010.253906</ele>
        <time>2009-10-24T12:07:48Z</time>
      </trkpt>
      <trkpt lat="45.01069" lon="5.823">
        <ele>2017.94458</ele>
        <time>2009-10-24T12:08:12Z</time>
      </trkpt>
      <trkpt lat="45.01069" lon="5.82296">
        <ele>2018.906006</ele>
        <time>2009-10-24T12:08:17Z</time>
      </trkpt>
      <trkpt lat="45.01011" lon="5.82295">
        <ele>2026.596436</ele>
        <time>2009-10-24T12:09:12Z</time>
      </trkpt>
      <trkpt lat="45.00993" lon="5.82302">
        <ele>2028.038574</ele>
        <time>2009-10-24T12:09:28Z</time>
      </trkpt>
      <trkpt lat="45.00965" lon="5.82299">
        <ele>2024.193115</ele>
        <time>2009-10-24T12:09:53Z</time>
      </trkpt>
      <trkpt lat="45.00967" lon="5.82298">
        <ele>2025.154297</ele>
        <time>2009-10-24T12:10:17Z</time>
      </trkpt>
      <trkpt lat="45.00958" lon="5.82315">
        <ele>2022.751221</ele>
        <time>2009-10-24T12:11:58Z</time>
      </trkpt>
      <trkpt lat="45.00957" lon="5.82341">
        <ele>2023.231934</ele>
        <time>2009-10-24T12:12:11Z</time>
      </trkpt>
      <trkpt lat="45.00949" lon="5.82359">
        <ele>2023.231934</ele>
        <time>2009-10-24T12:12:22Z</time>
      </trkpt>
      <trkpt lat="45.00913" lon="5.82387">
        <ele>2032.844971</ele>
        <time>2009-10-24T12:13:02Z</time>
      </trkpt>
      <trkpt lat="45.00874" lon="5.82401">
        <ele>2039.574219</ele>
        <time>2009-10-24T12:13:44Z</time>
      </trkpt>
      <trkpt lat="45.00823" lon="5.82428">
        <ele>2053.513428</ele>
        <time>2009-10-24T12:14:43Z</time>
      </trkpt>
      <trkpt lat="45.00811" lon="5.82428">
        <ele>2056.397217</ele>
        <time>2009-10-24T12:14:58Z</time>
      </trkpt>
      <trkpt lat="45.00808" lon="5.8242">
        <ele>2055.436035</ele>
        <time>2009-10-24T12:15:07Z</time>
      </trkpt>
      <trkpt lat="45.00798" lon="5.82418">
        <ele>2056.397217</ele>
        <time>2009-10-24T12:15:17Z</time>
      </trkpt>
      <trkpt lat="45.00768" lon="5.82433">
        <ele>2066.010498</ele>
        <time>2009-10-24T12:15:56Z</time>
      </trkpt>
      <trkpt lat="45.00758" lon="5.82432">
        <ele>2066.491211</ele>
        <time>2009-10-24T12:16:10Z</time>
      </trkpt>
      <trkpt lat="45.00705" lon="5.82456">
        <ele>2082.833496</ele>
        <time>2009-10-24T12:17:24Z</time>
      </trkpt>
      <trkpt lat="45.00693" lon="5.82466">
        <ele>2084.275635</ele>
        <time>2009-10-24T12:17:46Z</time>
      </trkpt>
      <trkpt lat="45.00661" lon="5.82481">
        <ele>2092.447021</ele>
        <time>2009-10-24T12:18:53Z</time>
      </trkpt>
      <trkpt lat="45.0065" lon="5.82479">
        <ele>2096.292236</ele>
        <time>2009-10-24T12:19:17Z</time>
      </trkpt>
      <trkpt lat="45.00613" lon="5.8249">
        <ele>2102.059814</ele>
        <time>2009-10-24T12:20:25Z</time>
      </trkpt>
      <trkpt lat="45.00591" lon="5.82492">
        <ele>2102.059814</ele>
        <time>2009-10-24T12:20:55Z</time>
      </trkpt>
      <trkpt lat="45.0053" lon="5.8252">
        <ele>2115.999023</ele>
        <time>2009-10-24T12:21:40Z</time>
      </trkpt>
      <trkpt lat="45.00498" lon="5.8254">
        <ele>2121.766846</ele>
        <time>2009-10-24T12:22:12Z</time>
      </trkpt>
      <trkpt lat="45.00497" lon="5.82546">
        <ele>2122.247559</ele>
        <time>2009-10-24T12:22:19Z</time>
      </trkpt>
      <trkpt lat="45.00523" lon="5.82551">
        <ele>2128.015625</ele>
        <time>2009-10-24T12:22:57Z</time>
      </trkpt>
      <trkpt lat="45.00563" lon="5.82568">
        <ele>2134.26416</ele>
        <time>2009-10-24T12:23:47Z</time>
      </trkpt>
      <trkpt lat="45.00521" lon="5.82618">
        <ele>2142.916016</ele>
        <time>2009-10-24T12:24:52Z</time>
      </trkpt>
      <trkpt lat="45.00519" lon="5.82631">
        <ele>2144.838623</ele>
        <time>2009-10-24T12:25:11Z</time>
      </trkpt>
      <trkpt lat="45.00522" lon="5.82637">
        <ele>2146.76123</ele>
        <time>2009-10-24T12:25:18Z</time>
      </trkpt>
      <trkpt lat="45.00519" lon="5.82643">
        <ele>2148.683838</ele>
        <time>2009-10-24T12:25:46Z</time>
        <extensions>
          <visugpx:TrkExtension xmlns:visugpx="https://www.visugpx.com/editgpx/">
            <visugpx:node>1</visugpx:node>
            </visugpx:TrkExtension>
        </extensions>
      </trkpt>
      <trkpt lat="45.00498" lon="5.82668">
        <ele>2135.8</ele>
      </trkpt>
      <trkpt lat="45.00495" lon="5.82674">
        <ele>2134.8</ele>
      </trkpt>
      <trkpt lat="45.00493" lon="5.82682">
        <ele>2133.5</ele>
      </trkpt>
      <trkpt lat="45.00492" lon="5.82702">
        <ele>2129.8</ele>
      </trkpt>
      <trkpt lat="45.00486" lon="5.82724">
        <ele>2126.6</ele>
      </trkpt>
      <trkpt lat="45.00487" lon="5.82729">
        <ele>2125.2</ele>
      </trkpt>
      <trkpt lat="45.00485" lon="5.82742">
        <ele>2122.7</ele>
      </trkpt>
      <trkpt lat="45.00486" lon="5.82748">
        <ele>2121</ele>
      </trkpt>
      <trkpt lat="45.00503" lon="5.82772">
        <ele>2110.1</ele>
      </trkpt>
      <trkpt lat="45.00513" lon="5.82791">
        <ele>2102.4</ele>
      </trkpt>
      <trkpt lat="45.00533" lon="5.82817">
        <ele>2091.4</ele>
      </trkpt>
      <trkpt lat="45.00547" lon="5.82841">
        <ele>2084.4</ele>
      </trkpt>
      <trkpt lat="45.00547" lon="5.82845">
        <ele>2083.8</ele>
      </trkpt>
      <trkpt lat="45.00553" lon="5.82849">
        <ele>2082.6</ele>
      </trkpt>
      <trkpt lat="45.00562" lon="5.82857">
        <ele>2076.9</ele>
      </trkpt>
      <trkpt lat="45.00563" lon="5.82864">
        <ele>2075.3</ele>
      </trkpt>
      <trkpt lat="45.00555" lon="5.82882">
        <ele>2075</ele>
      </trkpt>
      <trkpt lat="45.00543" lon="5.82904">
        <ele>2066.7</ele>
      </trkpt>
      <trkpt lat="45.00526" lon="5.82927">
        <ele>2064.4</ele>
      </trkpt>
      <trkpt lat="45.00514" lon="5.82956">
        <ele>2058</ele>
      </trkpt>
      <trkpt lat="45.00507" lon="5.82969">
        <ele>2055.4</ele>
      </trkpt>
      <trkpt lat="45.005" lon="5.82999">
        <ele>2050.2</ele>
      </trkpt>
      <trkpt lat="45.00503" lon="5.83025">
        <ele>2046.2</ele>
      </trkpt>
      <trkpt lat="45.00531" lon="5.83072">
        <ele>2037.1</ele>
      </trkpt>
      <trkpt lat="45.0053" lon="5.83087">
        <ele>2037.7</ele>
      </trkpt>
      <trkpt lat="45.00524" lon="5.83111">
        <ele>2035.3</ele>
      </trkpt>
      <trkpt lat="45.00519" lon="5.83127">
        <ele>2030.8</ele>
      </trkpt>
      <trkpt lat="45.00505" lon="5.83146">
        <ele>2029</ele>
      </trkpt>
      <trkpt lat="45.00501" lon="5.83158">
        <ele>2028.1</ele>
      </trkpt>
      <trkpt lat="45.005" lon="5.83171">
        <ele>2026.4</ele>
      </trkpt>
      <trkpt lat="45.00508" lon="5.83196">
        <ele>2018.3</ele>
      </trkpt>
      <trkpt lat="45.00509" lon="5.83206">
        <ele>2017.4</ele>
      </trkpt>
      <trkpt lat="45.00512" lon="5.83219">
        <ele>2016</ele>
      </trkpt>
      <trkpt lat="45.00513" lon="5.83232">
        <ele>2016.2</ele>
      </trkpt>
      <trkpt lat="45.00526" lon="5.8326">
        <ele>2017.2</ele>
      </trkpt>
      <trkpt lat="45.00539" lon="5.83311">
        <ele>2016.9</ele>
      </trkpt>
      <trkpt lat="45.00544" lon="5.83387">
        <ele>2025.2</ele>
      </trkpt>
      <trkpt lat="45.00543" lon="5.83395">
        <ele>2025.2</ele>
      </trkpt>
      <trkpt lat="45.00544" lon="5.83429">
        <ele>2025.8</ele>
      </trkpt>
      <trkpt lat="45.00537" lon="5.83478">
        <ele>2034.4</ele>
      </trkpt>
      <trkpt lat="45.00536" lon="5.83505">
        <ele>2039.7</ele>
      </trkpt>
      <trkpt lat="45.00541" lon="5.83546">
        <ele>2049.1</ele>
      </trkpt>
      <trkpt lat="45.00555" lon="5.83617">
        <ele>2068.8</ele>
      </trkpt>
      <trkpt lat="45.00557" lon="5.8364">
        <ele>2071.2</ele>
      </trkpt>
      <trkpt lat="45.00557" lon="5.83659">
        <ele>2073.5</ele>
      </trkpt>
      <trkpt lat="45.00559" lon="5.83678">
        <ele>2074.9</ele>
      </trkpt>
      <trkpt lat="45.00573" lon="5.83727">
        <ele>2077</ele>
      </trkpt>
      <trkpt lat="45.00577" lon="5.83768">
        <ele>2071.8</ele>
      </trkpt>
      <trkpt lat="45.00578" lon="5.83787">
        <ele>2069.2</ele>
      </trkpt>
      <trkpt lat="45.00577" lon="5.83816">
        <ele>2063.5</ele>
      </trkpt>
      <trkpt lat="45.00575" lon="5.8383">
        <ele>2060.2</ele>
      </trkpt>
      <trkpt lat="45.00573" lon="5.83857">
        <ele>2057.2</ele>
      </trkpt>
      <trkpt lat="45.00561" lon="5.83931">
        <ele>2060</ele>
      </trkpt>
      <trkpt lat="45.00559" lon="5.83979">
        <ele>2064.8</ele>
      </trkpt>
      <trkpt lat="45.00561" lon="5.8399">
        <ele>2064.3</ele>
      </trkpt>
      <trkpt lat="45.00564" lon="5.84002">
        <ele>2063.5</ele>
      </trkpt>
      <trkpt lat="45.00572" lon="5.84039">
        <ele>2060.9</ele>
      </trkpt>
      <trkpt lat="45.00583" lon="5.84048">
        <ele>2059.3</ele>
      </trkpt>
      <trkpt lat="45.00596" lon="5.84062">
        <ele>2054.2</ele>
      </trkpt>
      <trkpt lat="45.00631" lon="5.84076">
        <ele>2042.6</ele>
      </trkpt>
      <trkpt lat="45.00672" lon="5.84099">
        <ele>2023.8</ele>
      </trkpt>
      <trkpt lat="45.00683" lon="5.84102">
        <ele>2018.8</ele>
      </trkpt>
      <trkpt lat="45.00685" lon="5.84101">
        <ele>2017.8</ele>
      </trkpt>
      <trkpt lat="45.007" lon="5.84117">
        <ele>2011.6</ele>
      </trkpt>
      <trkpt lat="45.0071" lon="5.84123">
        <ele>2007.3</ele>
      </trkpt>
      <trkpt lat="45.00734" lon="5.84134">
        <ele>2000.2</ele>
      </trkpt>
      <trkpt lat="45.00762" lon="5.8415">
        <ele>1991.6</ele>
      </trkpt>
      <trkpt lat="45.00778" lon="5.84154">
        <ele>1987.4</ele>
      </trkpt>
      <trkpt lat="45.00802" lon="5.84172">
        <ele>1983.1</ele>
      </trkpt>
      <trkpt lat="45.00812" lon="5.84184">
        <ele>1978.9</ele>
      </trkpt>
      <trkpt lat="45.0082" lon="5.84198">
        <ele>1975.4</ele>
      </trkpt>
      <trkpt lat="45.00828" lon="5.84217">
        <ele>1969.9</ele>
      </trkpt>
      <trkpt lat="45.00834" lon="5.84239">
        <ele>1966.3</ele>
      </trkpt>
      <trkpt lat="45.00835" lon="5.8425">
        <ele>1964.3</ele>
      </trkpt>
      <trkpt lat="45.00835" lon="5.84281">
        <ele>1961.2</ele>
      </trkpt>
      <trkpt lat="45.00839" lon="5.843">
        <ele>1958.3</ele>
      </trkpt>
      <trkpt lat="45.0084" lon="5.8432">
        <ele>1955.2</ele>
      </trkpt>
      <trkpt lat="45.0084" lon="5.84327">
        <ele>1954.1</ele>
      </trkpt>
      <trkpt lat="45.00838" lon="5.84334">
        <ele>1953.6</ele>
      </trkpt>
      <trkpt lat="45.00836" lon="5.84368">
        <ele>1952</ele>
      </trkpt>
      <trkpt lat="45.00838" lon="5.84403">
        <ele>1949.2</ele>
      </trkpt>
      <trkpt lat="45.00831" lon="5.84453">
        <ele>1942.6</ele>
      </trkpt>
      <trkpt lat="45.00833" lon="5.84482">
        <ele>1937.8</ele>
      </trkpt>
      <trkpt lat="45.00831" lon="5.84506">
        <ele>1933.2</ele>
      </trkpt>
      <trkpt lat="45.00836" lon="5.84522">
        <ele>1933</ele>
      </trkpt>
      <trkpt lat="45.00839" lon="5.8453">
        <ele>1933</ele>
      </trkpt>
      <trkpt lat="45.00841" lon="5.84537">
        <ele>1932.6</ele>
      </trkpt>
      <trkpt lat="45.00843" lon="5.8455">
        <ele>1931.4</ele>
      </trkpt>
      <trkpt lat="45.00844" lon="5.84557">
        <ele>1930.6</ele>
      </trkpt>
      <trkpt lat="45.00845" lon="5.84562">
        <ele>1929.9</ele>
      </trkpt>
      <trkpt lat="45.00846" lon="5.84564">
        <ele>1929.7</ele>
      </trkpt>
      <trkpt lat="45.00864" lon="5.84624">
        <ele>1919.4</ele>
      </trkpt>
      <trkpt lat="45.00868" lon="5.84691">
        <ele>1912.5</ele>
      </trkpt>
      <trkpt lat="45.00871" lon="5.84706">
        <ele>1911.6</ele>
      </trkpt>
      <trkpt lat="45.00882" lon="5.84736">
        <ele>1910.9</ele>
      </trkpt>
      <trkpt lat="45.00902" lon="5.84775">
        <ele>1911</ele>
      </trkpt>
      <trkpt lat="45.00905" lon="5.84785">
        <ele>1911</ele>
      </trkpt>
      <trkpt lat="45.00909" lon="5.84799">
        <ele>1910.6</ele>
      </trkpt>
      <trkpt lat="45.00942" lon="5.84869">
        <ele>1907.4</ele>
      </trkpt>
      <trkpt lat="45.00954" lon="5.84909">
        <ele>1902.8</ele>
      </trkpt>
      <trkpt lat="45.0097" lon="5.84984">
        <ele>1894.9</ele>
      </trkpt>
      <trkpt lat="45.0097" lon="5.8499">
        <ele>1894.2</ele>
      </trkpt>
      <trkpt lat="45.00973" lon="5.85008">
        <ele>1891.2</ele>
      </trkpt>
      <trkpt lat="45.00976" lon="5.85029">
        <ele>1889</ele>
      </trkpt>
      <trkpt lat="45.01003" lon="5.85114">
        <ele>1877.1</ele>
      </trkpt>
      <trkpt lat="45.01006" lon="5.8513">
        <ele>1875.8</ele>
      </trkpt>
      <trkpt lat="45.01009" lon="5.85137">
        <ele>1874.8</ele>
      </trkpt>
      <trkpt lat="45.0103" lon="5.85109">
        <ele>1870</ele>
      </trkpt>
      <trkpt lat="45.01039" lon="5.85094">
        <ele>1866</ele>
      </trkpt>
      <trkpt lat="45.01045" lon="5.85077">
        <ele>1863.2</ele>
      </trkpt>
      <trkpt lat="45.01055" lon="5.85024">
        <ele>1854.1</ele>
      </trkpt>
      <trkpt lat="45.01062" lon="5.85004">
        <ele>1850.3</ele>
      </trkpt>
      <trkpt lat="45.01073" lon="5.8498">
        <ele>1845</ele>
      </trkpt>
      <trkpt lat="45.01087" lon="5.84959">
        <ele>1838.4</ele>
      </trkpt>
      <trkpt lat="45.01091" lon="5.84957">
        <ele>1837.1</ele>
      </trkpt>
      <trkpt lat="45.011" lon="5.84961">
        <ele>1834.6</ele>
      </trkpt>
      <trkpt lat="45.01103" lon="5.84966">
        <ele>1834</ele>
      </trkpt>
      <trkpt lat="45.0111" lon="5.84997">
        <ele>1830.6</ele>
      </trkpt>
      <trkpt lat="45.0112" lon="5.85061">
        <ele>1823.3</ele>
      </trkpt>
      <trkpt lat="45.01132" lon="5.85126">
        <ele>1818.5</ele>
      </trkpt>
      <trkpt lat="45.01138" lon="5.85166">
        <ele>1810.6</ele>
      </trkpt>
      <trkpt lat="45.0115" lon="5.85231">
        <ele>1800.7</ele>
      </trkpt>
      <trkpt lat="45.01154" lon="5.85271">
        <ele>1796.5</ele>
      </trkpt>
      <trkpt lat="45.01158" lon="5.85296">
        <ele>1794.2</ele>
      </trkpt>
      <trkpt lat="45.01162" lon="5.85306">
        <ele>1792.7</ele>
      </trkpt>
      <trkpt lat="45.01167" lon="5.85315">
        <ele>1791.3</ele>
      </trkpt>
      <trkpt lat="45.01172" lon="5.8532">
        <ele>1790.3</ele>
      </trkpt>
      <trkpt lat="45.01197" lon="5.85334">
        <ele>1785.3</ele>
      </trkpt>
      <trkpt lat="45.01206" lon="5.85349">
        <ele>1783.2</ele>
      </trkpt>
      <trkpt lat="45.01212" lon="5.85363">
        <ele>1781.9</ele>
      </trkpt>
      <trkpt lat="45.01218" lon="5.85366">
        <ele>1779.9</ele>
      </trkpt>
      <trkpt lat="45.01222" lon="5.85362">
        <ele>1779</ele>
      </trkpt>
      <trkpt lat="45.01224" lon="5.85354">
        <ele>1778</ele>
      </trkpt>
      <trkpt lat="45.01223" lon="5.85302">
        <ele>1774.3</ele>
      </trkpt>
      <trkpt lat="45.01225" lon="5.85284">
        <ele>1772</ele>
      </trkpt>
      <trkpt lat="45.0123" lon="5.85274">
        <ele>1770.6</ele>
      </trkpt>
      <trkpt lat="45.01232" lon="5.85271">
        <ele>1770.3</ele>
      </trkpt>
      <trkpt lat="45.01235" lon="5.85271">
        <ele>1769.9</ele>
      </trkpt>
      <trkpt lat="45.01238" lon="5.85272">
        <ele>1769.4</ele>
      </trkpt>
      <trkpt lat="45.01241" lon="5.85277">
        <ele>1768.7</ele>
      </trkpt>
      <trkpt lat="45.01245" lon="5.85284">
        <ele>1767.5</ele>
      </trkpt>
      <trkpt lat="45.01251" lon="5.85291">
        <ele>1765.5</ele>
      </trkpt>
      <trkpt lat="45.01282" lon="5.85304">
        <ele>1760</ele>
      </trkpt>
      <trkpt lat="45.01314" lon="5.85311">
        <ele>1755.7</ele>
      </trkpt>
      <trkpt lat="45.01349" lon="5.85306">
        <ele>1753.7</ele>
      </trkpt>
      <trkpt lat="45.01361" lon="5.85306">
        <ele>1752.8</ele>
      </trkpt>
      <trkpt lat="45.01381" lon="5.85312">
        <ele>1749.4</ele>
      </trkpt>
      <trkpt lat="45.01394" lon="5.85312">
        <ele>1748</ele>
      </trkpt>
      <trkpt lat="45.0143" lon="5.85301">
        <ele>1743.5</ele>
      </trkpt>
      <trkpt lat="45.01436" lon="5.85298">
        <ele>1742.5</ele>
      </trkpt>
      <trkpt lat="45.01468" lon="5.85269">
        <ele>1738.2</ele>
      </trkpt>
      <trkpt lat="45.01474" lon="5.85263">
        <ele>1737</ele>
      </trkpt>
      <trkpt lat="45.01487" lon="5.85241">
        <ele>1734.9</ele>
      </trkpt>
      <trkpt lat="45.01492" lon="5.85236">
        <ele>1733.6</ele>
      </trkpt>
      <trkpt lat="45.01509" lon="5.85228">
        <ele>1728.3</ele>
      </trkpt>
      <trkpt lat="45.01514" lon="5.85224">
        <ele>1726.8</ele>
      </trkpt>
      <trkpt lat="45.01546" lon="5.85173">
        <ele>1716.4</ele>
      </trkpt>
      <trkpt lat="45.01559" lon="5.85149">
        <ele>1712.2</ele>
      </trkpt>
      <trkpt lat="45.01564" lon="5.85141">
        <ele>1710.9</ele>
      </trkpt>
      <trkpt lat="45.0157" lon="5.85136">
        <ele>1709.5</ele>
      </trkpt>
      <trkpt lat="45.01575" lon="5.85133">
        <ele>1708.2</ele>
      </trkpt>
      <trkpt lat="45.01582" lon="5.85132">
        <ele>1706.8</ele>
      </trkpt>
      <trkpt lat="45.01596" lon="5.85131">
        <ele>1703.8</ele>
      </trkpt>
      <trkpt lat="45.01621" lon="5.85134">
        <ele>1700</ele>
      </trkpt>
      <trkpt lat="45.01633" lon="5.85132">
        <ele>1698.2</ele>
      </trkpt>
      <trkpt lat="45.01637" lon="5.8513">
        <ele>1697.6</ele>
      </trkpt>
      <trkpt lat="45.01641" lon="5.85127">
        <ele>1696.6</ele>
      </trkpt>
      <trkpt lat="45.01649" lon="5.85119">
        <ele>1694.3</ele>
      </trkpt>
      <trkpt lat="45.01653" lon="5.85117">
        <ele>1693.3</ele>
      </trkpt>
      <trkpt lat="45.01657" lon="5.85116">
        <ele>1692.3</ele>
      </trkpt>
      <trkpt lat="45.01666" lon="5.85121">
        <ele>1690.5</ele>
      </trkpt>
      <trkpt lat="45.01675" lon="5.85141">
        <ele>1688</ele>
      </trkpt>
      <trkpt lat="45.01685" lon="5.85169">
        <ele>1684</ele>
      </trkpt>
      <trkpt lat="45.01685" lon="5.85179">
        <ele>1682.5</ele>
      </trkpt>
      <trkpt lat="45.01681" lon="5.85197">
        <ele>1681</ele>
      </trkpt>
      <trkpt lat="45.01673" lon="5.85215">
        <ele>1678.6</ele>
      </trkpt>
      <trkpt lat="45.0166" lon="5.85235">
        <ele>1675.4</ele>
      </trkpt>
      <trkpt lat="45.01638" lon="5.85258">
        <ele>1670.8</ele>
      </trkpt>
      <trkpt lat="45.01632" lon="5.85268">
        <ele>1668.7</ele>
      </trkpt>
      <trkpt lat="45.01623" lon="5.85289">
        <ele>1665.3</ele>
      </trkpt>
      <trkpt lat="45.01617" lon="5.85311">
        <ele>1662</ele>
      </trkpt>
      <trkpt lat="45.01613" lon="5.8534">
        <ele>1654.5</ele>
      </trkpt>
      <trkpt lat="45.01612" lon="5.85422">
        <ele>1639.9</ele>
      </trkpt>
      <trkpt lat="45.01616" lon="5.85449">
        <ele>1635.3</ele>
      </trkpt>
      <trkpt lat="45.01618" lon="5.85455">
        <ele>1634.4</ele>
      </trkpt>
      <trkpt lat="45.01622" lon="5.85461">
        <ele>1633.1</ele>
      </trkpt>
      <trkpt lat="45.01626" lon="5.85462">
        <ele>1632.1</ele>
      </trkpt>
      <trkpt lat="45.0163" lon="5.85463">
        <ele>1631.1</ele>
      </trkpt>
      <trkpt lat="45.01637" lon="5.85461">
        <ele>1629.5</ele>
      </trkpt>
      <trkpt lat="45.01671" lon="5.85442">
        <ele>1622.2</ele>
      </trkpt>
      <trkpt lat="45.01707" lon="5.85399">
        <ele>1615.5</ele>
      </trkpt>
      <trkpt lat="45.01716" lon="5.85394">
        <ele>1614.4</ele>
      </trkpt>
      <trkpt lat="45.01724" lon="5.85393">
        <ele>1613.1</ele>
      </trkpt>
      <trkpt lat="45.01735" lon="5.85398">
        <ele>1609.9</ele>
      </trkpt>
      <trkpt lat="45.01749" lon="5.85419">
        <ele>1605.1</ele>
      </trkpt>
      <trkpt lat="45.01756" lon="5.85425">
        <ele>1603</ele>
      </trkpt>
      <trkpt lat="45.01765" lon="5.85429">
        <ele>1600.6</ele>
      </trkpt>
      <trkpt lat="45.01778" lon="5.85427">
        <ele>1597.8</ele>
      </trkpt>
      <trkpt lat="45.01795" lon="5.85413">
        <ele>1593.9</ele>
      </trkpt>
      <trkpt lat="45.01801" lon="5.85415">
        <ele>1592.3</ele>
      </trkpt>
      <trkpt lat="45.01804" lon="5.85423">
        <ele>1591</ele>
      </trkpt>
      <trkpt lat="45.01804" lon="5.85449">
        <ele>1588.6</ele>
      </trkpt>
      <trkpt lat="45.01805" lon="5.85452">
        <ele>1587.8</ele>
      </trkpt>
      <trkpt lat="45.01809" lon="5.85455">
        <ele>1586.3</ele>
      </trkpt>
      <trkpt lat="45.01815" lon="5.85453">
        <ele>1585.3</ele>
      </trkpt>
      <trkpt lat="45.01837" lon="5.85438">
        <ele>1580.4</ele>
      </trkpt>
      <trkpt lat="45.01846" lon="5.85409">
        <ele>1576.7</ele>
      </trkpt>
      <trkpt lat="45.01856" lon="5.85398">
        <ele>1573.9</ele>
      </trkpt>
      <trkpt lat="45.01869" lon="5.85395">
        <ele>1570.6</ele>
      </trkpt>
      <trkpt lat="45.01897" lon="5.85391">
        <ele>1564.4</ele>
      </trkpt>
      <trkpt lat="45.01901" lon="5.85391">
        <ele>1563.6</ele>
      </trkpt>
      <trkpt lat="45.01901" lon="5.85402">
        <ele>1562.7</ele>
      </trkpt>
      <trkpt lat="45.01898" lon="5.85429">
        <ele>1561.4</ele>
      </trkpt>
      <trkpt lat="45.019" lon="5.85448">
        <ele>1560</ele>
      </trkpt>
      <trkpt lat="45.01906" lon="5.85466">
        <ele>1557.4</ele>
      </trkpt>
      <trkpt lat="45.01923" lon="5.85495">
        <ele>1551.2</ele>
      </trkpt>
      <trkpt lat="45.0193" lon="5.85507">
        <ele>1549.3</ele>
      </trkpt>
      <trkpt lat="45.01934" lon="5.85498">
        <ele>1549</ele>
      </trkpt>
      <trkpt lat="45.01947" lon="5.85479">
        <ele>1548</ele>
      </trkpt>
      <trkpt lat="45.01963" lon="5.85466">
        <ele>1545.6</ele>
      </trkpt>
      <trkpt lat="45.01988" lon="5.85454">
        <ele>1541.9</ele>
      </trkpt>
      <trkpt lat="45.01999" lon="5.85451">
        <ele>1540.2</ele>
      </trkpt>
      <trkpt lat="45.02013" lon="5.85456">
        <ele>1537.3</ele>
      </trkpt>
      <trkpt lat="45.02048" lon="5.85474">
        <ele>1528.8</ele>
      </trkpt>
      <trkpt lat="45.02064" lon="5.85486">
        <ele>1524.6</ele>
      </trkpt>
      <trkpt lat="45.0208" lon="5.855">
        <ele>1519.5</ele>
      </trkpt>
      <trkpt lat="45.02097" lon="5.85519">
        <ele>1513.6</ele>
      </trkpt>
      <trkpt lat="45.0211" lon="5.85537">
        <ele>1508.8</ele>
      </trkpt>
      <trkpt lat="45.02126" lon="5.85564">
        <ele>1503.4</ele>
      </trkpt>
      <trkpt lat="45.02103" lon="5.85606">
        <ele>1499.3</ele>
      </trkpt>
      <trkpt lat="45.02081" lon="5.8565">
        <ele>1493.2</ele>
      </trkpt>
      <trkpt lat="45.02069" lon="5.85709">
        <ele>1485</ele>
      </trkpt>
      <trkpt lat="45.02063" lon="5.85728">
        <ele>1483.1</ele>
      </trkpt>
      <trkpt lat="45.0206" lon="5.85742">
        <ele>1481.4</ele>
      </trkpt>
      <trkpt lat="45.02067" lon="5.85749">
        <ele>1478.7</ele>
      </trkpt>
      <trkpt lat="45.02092" lon="5.85768">
        <ele>1470.2</ele>
      </trkpt>
      <trkpt lat="45.02121" lon="5.85787">
        <ele>1459.6</ele>
      </trkpt>
      <trkpt lat="45.02129" lon="5.8579">
        <ele>1456.9</ele>
      </trkpt>
      <trkpt lat="45.02147" lon="5.8579">
        <ele>1452.2</ele>
      </trkpt>
      <trkpt lat="45.02169" lon="5.85778">
        <ele>1448.4</ele>
      </trkpt>
      <trkpt lat="45.02199" lon="5.85777">
        <ele>1440.8</ele>
      </trkpt>
      <trkpt lat="45.02219" lon="5.85774">
        <ele>1435.6</ele>
      </trkpt>
      <trkpt lat="45.02243" lon="5.85769">
        <ele>1430.3</ele>
      </trkpt>
      <trkpt lat="45.0226" lon="5.85768">
        <ele>1426.1</ele>
      </trkpt>
      <trkpt lat="45.02273" lon="5.85768">
        <ele>1422.7</ele>
      </trkpt>
      <trkpt lat="45.02308" lon="5.85777">
        <ele>1411.5</ele>
      </trkpt>
      <trkpt lat="45.02386" lon="5.85768">
        <ele>1390.9</ele>
      </trkpt>
      <trkpt lat="45.02397" lon="5.85768">
        <ele>1388.2</ele>
      </trkpt>
      <trkpt lat="45.02408" lon="5.85772">
        <ele>1384.8</ele>
      </trkpt>
      <trkpt lat="45.02444" lon="5.85792">
        <ele>1375.6</ele>
      </trkpt>
      <trkpt lat="45.02482" lon="5.85814">
        <ele>1371.6</ele>
      </trkpt>
      <trkpt lat="45.02509" lon="5.85829">
        <ele>1370.2</ele>
      </trkpt>
      <trkpt lat="45.0253" lon="5.85838">
        <ele>1368.8</ele>
      </trkpt>
      <trkpt lat="45.02579" lon="5.85849">
        <ele>1364.3</ele>
      </trkpt>
      <trkpt lat="45.02592" lon="5.85851">
        <ele>1363.6</ele>
      </trkpt>
      <trkpt lat="45.02621" lon="5.85856">
        <ele>1362.2</ele>
      </trkpt>
      <trkpt lat="45.02648" lon="5.85861">
        <ele>1360.7</ele>
      </trkpt>
      <trkpt lat="45.02663" lon="5.85846">
        <ele>1360.1</ele>
      </trkpt>
      <trkpt lat="45.02679" lon="5.85829">
        <ele>1359.5</ele>
      </trkpt>
      <trkpt lat="45.02687" lon="5.85821">
        <ele>1358.9</ele>
      </trkpt>
      <trkpt lat="45.02695" lon="5.85814">
        <ele>1358.3</ele>
      </trkpt>
      <trkpt lat="45.02703" lon="5.85811">
        <ele>1357.9</ele>
      </trkpt>
      <trkpt lat="45.02712" lon="5.85805">
        <ele>1357.3</ele>
      </trkpt>
      <trkpt lat="45.02719" lon="5.85805">
        <ele>1357.1</ele>
        <extensions>
          <visugpx:TrkExtension xmlns:visugpx="https://www.visugpx.com/editgpx/">
            <visugpx:node>2</visugpx:node>
            </visugpx:TrkExtension>
        </extensions>
      </trkpt>
    </trkseg>
  </trk>
</gpx>